map of SFJ home
SFJ - Airport
Location
City:  Kangerlussuaq, Qeqqata, Greenland
Near (Alt.):Sondre Strømfjord, Sondrestrom
Name:Kangerlussuaq Airport
ICAO:BGSF
IATA:SFJ

Details
Type:Airport (Aerodrome, Airfield)
Latitude:67°01'01"N (67.016969)
Longitude:50°41'22"W (-50.689324)
Elevation:165 ft (50 m)
Variation:28.69°W (WMM2015 magnetic declination)
0.40° annual change
Runways:1
Longest:9219 × 197 ft (2810 × 60 m), paved

Time
Time Zone:UTC-3 (DST-2)
Local Time:

Weather
METAR:BGSF 171450Z AUTO 08008KT 9999NDV NCD M05/M13 Q0997
TAF:BGSF 170455Z 1706/1724 07008KT 9999 FEW100= TAF EGWU 170433Z 1706/1724 22005KT 9999 BKN030
BECMG 1706/1708 BKN010
TEMPO 1706/1719 6000 -RADZ PROB30
TEMPO 1707/1716 3000 RADZ BKN005
BECMG 1716/1719 BKN030

Related Locations
Nearby:
Farthest:YWKS: 11948 mi / 19229 km
Wilkins Runway (Casey), Upper Peterson Glacier, AQ

Find:

   beyond  
but within

Other Information
Maps:
NOTAMs:
Links:
Sources:

  
  • flag of Greenland
  

Sectional Chart

Flight Planning
at skyvector.com

Satellite Image

Google Maps Satellite view

 

Copyright © 2004-2018 Karl L. Swartz. All rights reserved.
The Great Circle Mapper name and logo are trademarks of the Great Circle Mapper.
All other trademarks mentioned herein belong to their respective owners.
Please see credits for attibutions and further copyright information.

  Follow gcmap on Facebook Follow gcmap on Twitter Follow gcmap on Google+ GCmap on LinkedIn

hCard Microformat

Geo Microformat